Time,TemperatureF,DewpointF,PressureIn,WindDirection,WindDirectionDegrees,WindSpeedMPH,WindSpeedGustMPH,Humidity,HourlyPrecipIn,Conditions,Clouds,dailyrainin,SoftwareType,DateUTC
2013-12-15 00:02:00,39.0,33.0,30.45,NE,51,0.0,0.0,79,0.00,,,0.00,Weather View 32 v70,2013-12-15 08:02:00,
2013-12-15 00:07:00,38.7,32.9,30.45,NE,51,0.0,0.0,80,0.00,,,0.00,Weather View 32 v70,2013-12-15 08:07:00,
2013-12-15 00:12:00,38.3,32.6,30.45,NE,51,0.0,0.0,80,0.00,,,0.00,Weather View 32 v70,2013-12-15 08:12:00,
2013-12-15 00:17:00,39.0,33.0,30.44,NE,51,0.0,0.0,79,0.00,,,0.00,Weather View 32 v70,2013-12-15 08:17:00,
2013-12-15 00:22:00,39.2,33.4,30.44,NE,51,0.0,0.0,80,0.00,,,0.00,Weather View 32 v70,2013-12-15 08:22:00,
2013-12-15 00:27:00,39.0,33.3,30.44,NE,51,0.0,0.0,80,0.00,,,0.00,Weather View 32 v70,2013-12-15 08:27:00,
2013-12-15 00:32:00,39.0,32.7,30.44,NE,51,0.0,0.0,78,0.00,,,0.00,Weather View 32 v70,2013-12-15 08:32:00,
2013-12-15 00:37:00,39.1,33.3,30.44,NE,51,0.0,0.0,80,0.00,,,0.00,Weather View 32 v70,2013-12-15 08:37:00,
2013-12-15 00:42:00,38.5,32.5,30.44,NE,51,0.0,0.0,79,0.00,,,0.00,Weather View 32 v70,2013-12-15 08:42:00,
2013-12-15 00:47:00,38.4,33.2,30.44,NE,51,0.0,0.0,81,0.00,,,0.00,Weather View 32 v70,2013-12-15 08:47:00,
2013-12-15 00:52:00,38.6,33.1,30.44,NE,51,0.0,0.0,80,0.00,,,0.00,Weather View 32 v70,2013-12-15 08:52:00,
2013-12-15 00:57:00,38.5,32.6,30.44,NE,51,0.0,0.0,79,0.00,,,0.00,Weather View 32 v70,2013-12-15 08:57:00,
2013-12-15 01:02:00,38.4,33.0,30.44,NE,51,0.0,0.0,81,0.00,,,0.00,Weather View 32 v70,2013-12-15 09:02:00,
2013-12-15 01:07:00,38.4,33.0,30.44,NE,51,0.0,0.0,81,0.00,,,0.00,Weather View 32 v70,2013-12-15 09:07:00,
2013-12-15 01:12:00,37.9,32.5,30.44,NE,51,0.0,0.0,81,0.00,,,0.00,Weather View 32 v70,2013-12-15 09:12:00,
2013-12-15 01:17:00,38.4,33.0,30.44,NW,318,0.0,0.0,81,0.00,,,0.00,Weather View 32 v70,2013-12-15 09:17:00,
2013-12-15 01:22:00,38.1,32.7,30.44,NW,318,0.0,0.0,81,0.00,,,0.00,Weather View 32 v70,2013-12-15 09:22:00,
2013-12-15 01:27:00,37.3,32.3,30.44,NW,318,0.0,0.0,82,0.00,,,0.00,Weather View 32 v70,2013-12-15 09:27:00,
2013-12-15 01:32:00,37.7,32.8,30.44,NW,318,0.0,0.0,82,0.00,,,0.00,Weather View 32 v70,2013-12-15 09:32:00,
2013-12-15 01:37:00,37.8,33.0,30.44,NW,318,0.0,0.0,83,0.00,,,0.00,Weather View 32 v70,2013-12-15 09:37:00,
2013-12-15 01:42:00,37.8,32.5,30.44,NW,318,0.0,0.0,81,0.00,,,0.00,Weather View 32 v70,2013-12-15 09:42:00,
2013-12-15 01:47:00,37.7,32.5,30.43,NW,318,0.0,0.0,81,0.00,,,0.00,Weather View 32 v70,2013-12-15 09:47:00,
2013-12-15 01:52:00,36.8,32.0,30.43,NW,318,0.0,0.0,83,0.00,,,0.00,Weather View 32 v70,2013-12-15 09:52:00,
2013-12-15 01:57:00,37.6,32.5,30.43,NW,318,0.0,0.0,82,0.00,,,0.00,Weather View 32 v70,2013-12-15 09:57:00,
2013-12-15 02:02:00,37.2,32.3,30.43,NW,318,0.0,0.0,82,0.00,,,0.00,Weather View 32 v70,2013-12-15 10:02:00,
2013-12-15 02:07:00,37.1,31.9,30.44,NW,318,0.0,0.0,81,0.00,,,0.00,Weather View 32 v70,2013-12-15 10:07:00,
2013-12-15 02:12:00,37.2,32.0,30.44,NW,318,0.0,0.0,81,0.00,,,0.00,Weather View 32 v70,2013-12-15 10:12:00,
2013-12-15 02:18:00,36.7,31.9,30.44,NW,318,0.0,0.0,83,0.00,,,0.00,Weather View 32 v70,2013-12-15 10:18:00,
2013-12-15 02:23:00,37.1,31.8,30.44,NW,318,0.0,0.0,81,0.00,,,0.00,Weather View 32 v70,2013-12-15 10:23:00,
2013-12-15 02:28:00,36.6,31.6,30.44,NW,318,0.0,0.0,82,0.00,,,0.00,Weather View 32 v70,2013-12-15 10:28:00,
2013-12-15 02:33:00,36.5,32.1,30.44,NW,318,0.0,0.0,84,0.00,,,0.00,Weather View 32 v70,2013-12-15 10:33:00,
2013-12-15 02:38:00,36.4,31.5,30.44,NW,318,0.0,0.0,82,0.00,,,0.00,Weather View 32 v70,2013-12-15 10:38:00,
2013-12-15 02:43:00,36.4,31.5,30.44,NW,318,0.0,0.0,82,0.00,,,0.00,Weather View 32 v70,2013-12-15 10:43:00,
2013-12-15 02:48:00,36.8,31.8,30.43,NW,318,0.0,0.0,82,0.00,,,0.00,Weather View 32 v70,2013-12-15 10:48:00,
2013-12-15 02:53:00,36.2,31.6,30.43,NW,318,0.0,0.0,83,0.00,,,0.00,Weather View 32 v70,2013-12-15 10:53:00,
2013-12-15 02:58:00,36.2,31.0,30.43,NW,318,0.0,0.0,81,0.00,,,0.00,Weather View 32 v70,2013-12-15 10:58:00,
2013-12-15 03:03:00,36.0,31.1,30.43,NW,318,0.0,0.0,82,0.00,,,0.00,Weather View 32 v70,2013-12-15 11:03:00,
2013-12-15 03:08:00,36.1,32.0,30.43,NW,318,0.0,0.0,85,0.00,,,0.00,Weather View 32 v70,2013-12-15 11:08:00,
2013-12-15 03:13:00,35.9,31.3,30.43,NW,318,0.0,0.0,83,0.00,,,0.00,Weather View 32 v70,2013-12-15 11:13:00,
2013-12-15 03:18:00,35.8,31.1,30.43,NW,318,0.0,0.0,83,0.00,,,0.00,Weather View 32 v70,2013-12-15 11:18:00,
2013-12-15 03:23:00,35.6,31.1,30.43,NW,318,0.0,0.0,84,0.00,,,0.00,Weather View 32 v70,2013-12-15 11:23:00,
2013-12-15 03:28:00,36.0,31.1,30.43,NW,318,0.0,0.0,82,0.00,,,0.00,Weather View 32 v70,2013-12-15 11:28:00,
2013-12-15 03:33:00,35.9,31.1,30.43,NW,318,0.0,0.0,83,0.00,,,0.00,Weather View 32 v70,2013-12-15 11:33:00,
2013-12-15 03:38:00,35.3,30.6,30.43,NW,318,0.0,0.0,83,0.00,,,0.00,Weather View 32 v70,2013-12-15 11:38:00,
2013-12-15 03:43:00,35.2,31.1,30.43,NW,318,0.0,0.0,85,0.00,,,0.00,Weather View 32 v70,2013-12-15 11:43:00,
2013-12-15 03:48:00,35.2,31.1,30.43,NW,318,0.0,0.0,85,0.00,,,0.00,Weather View 32 v70,2013-12-15 11:48:00,
2013-12-15 03:53:00,35.8,31.0,30.43,NW,318,0.0,0.0,82,0.00,,,0.00,Weather View 32 v70,2013-12-15 11:53:00,
2013-12-15 03:58:00,35.1,30.8,30.43,NW,318,0.0,0.0,84,0.00,,,0.00,Weather View 32 v70,2013-12-15 11:58:00,
2013-12-15 04:03:00,35.2,30.8,30.43,NW,318,0.0,0.0,84,0.00,,,0.00,Weather View 32 v70,2013-12-15 12:03:00,
2013-12-15 04:08:00,35.4,31.1,30.43,NW,318,0.0,0.0,84,0.00,,,0.00,Weather View 32 v70,2013-12-15 12:08:00,
2013-12-15 04:13:00,35.5,31.1,30.43,NW,318,0.0,0.0,84,0.00,,,0.00,Weather View 32 v70,2013-12-15 12:13:00,
2013-12-15 04:18:00,35.3,30.8,30.43,NW,318,0.0,0.0,84,0.00,,,0.00,Weather View 32 v70,2013-12-15 12:18:00,
2013-12-15 04:23:00,35.2,30.4,30.43,NW,318,0.0,0.0,83,0.00,,,0.00,Weather View 32 v70,2013-12-15 12:23:00,
2013-12-15 04:28:00,35.2,30.4,30.43,NW,318,0.0,0.0,83,0.00,,,0.00,Weather View 32 v70,2013-12-15 12:28:00,
2013-12-15 04:33:00,35.1,30.5,30.43,NW,318,0.0,0.0,83,0.00,,,0.00,Weather View 32 v70,2013-12-15 12:33:00,
2013-12-15 04:38:00,35.2,30.4,30.43,NW,318,0.0,0.0,83,0.00,,,0.00,Weather View 32 v70,2013-12-15 12:38:00,
2013-12-15 04:43:00,35.1,30.7,30.43,NW,318,0.0,0.0,84,0.00,,,0.00,Weather View 32 v70,2013-12-15 12:43:00,
2013-12-15 04:48:00,35.0,30.5,30.43,NW,318,0.0,0.0,84,0.00,,,0.00,Weather View 32 v70,2013-12-15 12:48:00,
2013-12-15 04:54:00,35.1,30.8,30.43,NW,318,0.0,0.0,84,0.00,,,0.00,Weather View 32 v70,2013-12-15 12:54:00,
2013-12-15 04:59:00,35.1,30.7,30.43,NW,318,0.0,0.0,84,0.00,,,0.00,Weather View 32 v70,2013-12-15 12:59:00,
2013-12-15 05:04:00,35.1,30.6,30.43,NW,318,0.0,0.0,84,0.00,,,0.00,Weather View 32 v70,2013-12-15 13:04:00,
2013-12-15 05:09:00,35.6,31.1,30.43,NW,318,0.0,0.0,83,0.00,,,0.00,Weather View 32 v70,2013-12-15 13:09:00,
2013-12-15 05:14:00,35.3,30.6,30.43,NW,318,0.0,0.0,83,0.00,,,0.00,Weather View 32 v70,2013-12-15 13:14:00,
2013-12-15 05:19:00,35.1,30.5,30.42,NW,318,0.0,0.0,83,0.00,,,0.00,Weather View 32 v70,2013-12-15 13:19:00,
2013-12-15 05:24:00,35.1,30.8,30.43,NW,318,0.0,0.0,84,0.00,,,0.00,Weather View 32 v70,2013-12-15 13:24:00,
2013-12-15 05:29:00,35.3,31.3,30.42,NW,318,0.0,0.0,85,0.00,,,0.00,Weather View 32 v70,2013-12-15 13:29:00,
2013-12-15 05:34:00,35.2,30.8,30.42,NW,318,0.0,0.0,84,0.00,,,0.00,Weather View 32 v70,2013-12-15 13:34:00,
2013-12-15 05:39:00,34.8,30.4,30.42,NW,318,0.0,0.0,84,0.00,,,0.00,Weather View 32 v70,2013-12-15 13:39:00,
2013-12-15 05:44:00,34.9,30.7,30.42,NW,318,0.0,0.0,84,0.00,,,0.00,Weather View 32 v70,2013-12-15 13:44:00,
2013-12-15 05:49:00,34.8,30.5,30.42,NW,318,0.0,0.0,84,0.00,,,0.00,Weather View 32 v70,2013-12-15 13:49:00,
2013-12-15 05:54:00,35.2,30.6,30.42,NW,318,0.0,0.0,83,0.00,,,0.00,Weather View 32 v70,2013-12-15 13:54:00,
2013-12-15 05:59:00,35.2,30.5,30.42,NW,318,0.0,0.0,83,0.00,,,0.00,Weather View 32 v70,2013-12-15 13:59:00,
2013-12-15 06:04:00,34.9,30.8,30.42,NW,318,0.0,0.0,85,0.00,,,0.00,Weather View 32 v70,2013-12-15 14:04:00,
2013-12-15 06:09:00,34.8,30.5,30.42,NW,318,0.0,0.0,84,0.00,,,0.00,Weather View 32 v70,2013-12-15 14:09:00,
2013-12-15 06:14:00,34.9,30.4,30.42,NW,318,0.0,0.0,83,0.00,,,0.00,Weather View 32 v70,2013-12-15 14:14:00,
2013-12-15 06:19:00,34.8,30.5,30.42,NW,318,0.0,0.0,84,0.00,,,0.00,Weather View 32 v70,2013-12-15 14:19:00,
2013-12-15 06:24:00,34.9,30.7,30.42,NW,318,0.0,0.0,85,0.00,,,0.00,Weather View 32 v70,2013-12-15 14:24:00,
2013-12-15 06:29:00,34.4,30.1,30.42,NW,318,0.0,0.0,84,0.00,,,0.00,Weather View 32 v70,2013-12-15 14:29:00,
2013-12-15 06:34:00,34.1,29.9,30.42,NW,318,0.0,0.0,85,0.00,,,0.00,Weather View 32 v70,2013-12-15 14:34:00,
2013-12-15 06:39:00,34.3,30.1,30.43,NW,318,0.0,0.0,85,0.00,,,0.00,Weather View 32 v70,2013-12-15 14:39:00,
2013-12-15 06:44:00,34.0,30.2,30.42,NW,318,0.0,0.0,86,0.00,,,0.00,Weather View 32 v70,2013-12-15 14:44:00,
2013-12-15 06:49:00,34.3,30.3,30.42,NW,318,0.0,0.0,85,0.00,,,0.00,Weather View 32 v70,2013-12-15 14:49:00,
2013-12-15 06:54:00,34.1,30.1,30.42,NW,318,0.0,0.0,85,0.00,,,0.00,Weather View 32 v70,2013-12-15 14:54:00,
2013-12-15 06:59:00,34.4,30.1,30.42,NW,318,0.0,0.0,84,0.00,,,0.00,Weather View 32 v70,2013-12-15 14:59:00,
2013-12-15 07:04:00,34.3,30.3,30.42,NW,318,0.0,0.0,85,0.00,,,0.00,Weather View 32 v70,2013-12-15 15:04:00,
2013-12-15 07:09:00,34.0,30.2,30.42,NW,318,0.0,0.0,86,0.00,,,0.00,Weather View 32 v70,2013-12-15 15:09:00,
2013-12-15 07:14:00,34.3,29.9,30.42,NW,318,0.0,0.0,84,0.00,,,0.00,Weather View 32 v70,2013-12-15 15:14:00,
2013-12-15 07:19:00,34.3,30.1,30.42,NW,318,0.0,0.0,84,0.00,,,0.00,Weather View 32 v70,2013-12-15 15:19:00,
2013-12-15 07:24:00,34.2,30.2,30.41,NW,318,0.0,0.0,85,0.00,,,0.00,Weather View 32 v70,2013-12-15 15:24:00,
2013-12-15 07:29:00,34.1,30.2,30.41,NW,318,0.0,0.0,85,0.00,,,0.00,Weather View 32 v70,2013-12-15 15:29:00,
2013-12-15 07:34:00,34.8,30.4,30.41,NW,318,0.0,0.0,84,0.00,,,0.00,Weather View 32 v70,2013-12-15 15:34:00,
2013-12-15 07:39:00,34.7,30.3,30.41,NW,318,0.0,0.0,84,0.00,,,0.00,Weather View 32 v70,2013-12-15 15:39:00,
2013-12-15 07:45:00,34.8,30.3,30.41,NW,318,0.0,0.0,83,0.00,,,0.00,Weather View 32 v70,2013-12-15 15:45:00,
2013-12-15 07:50:00,35.1,30.4,30.41,NW,318,0.0,0.0,83,0.00,,,0.00,Weather View 32 v70,2013-12-15 15:50:00,
2013-12-15 07:55:00,35.2,30.6,30.41,NW,318,0.0,0.0,83,0.00,,,0.00,Weather View 32 v70,2013-12-15 15:55:00,
2013-12-15 08:00:00,35.5,30.8,30.41,NW,318,0.0,0.0,83,0.00,,,0.00,Weather View 32 v70,2013-12-15 16:00:00,
2013-12-15 08:05:00,35.7,30.9,30.41,NW,318,0.0,0.0,83,0.00,,,0.00,Weather View 32 v70,2013-12-15 16:05:00,
2013-12-15 08:10:00,36.4,31.2,30.42,NW,318,0.0,0.0,81,0.00,,,0.00,Weather View 32 v70,2013-12-15 16:10:00,
2013-12-15 08:15:00,37.3,31.8,30.42,NW,318,0.0,0.0,80,0.00,,,0.00,Weather View 32 v70,2013-12-15 16:15:00,
2013-12-15 08:20:00,37.9,32.2,30.42,NW,318,0.0,0.0,80,0.00,,,0.00,Weather View 32 v70,2013-12-15 16:20:00,
2013-12-15 08:25:00,38.6,32.6,30.42,NW,318,0.0,0.0,79,0.00,,,0.00,Weather View 32 v70,2013-12-15 16:25:00,
2013-12-15 08:30:00,39.3,33.5,30.42,NW,318,0.0,0.0,80,0.00,,,0.00,Weather View 32 v70,2013-12-15 16:30:00,
2013-12-15 08:35:00,40.0,33.5,30.42,NW,318,0.0,0.0,77,0.00,,,0.00,Weather View 32 v70,2013-12-15 16:35:00,
2013-12-15 08:40:00,40.6,33.7,30.42,NW,318,0.0,0.0,76,0.00,,,0.00,Weather View 32 v70,2013-12-15 16:40:00,
2013-12-15 08:45:00,41.1,33.7,30.42,NW,318,0.0,0.0,75,0.00,,,0.00,Weather View 32 v70,2013-12-15 16:45:00,
2013-12-15 08:50:00,41.5,33.9,30.42,NW,318,0.0,0.0,74,0.00,,,0.00,Weather View 32 v70,2013-12-15 16:50:00,
2013-12-15 08:55:00,41.8,34.0,30.42,NW,318,0.0,0.0,74,0.00,,,0.00,Weather View 32 v70,2013-12-15 16:55:00,
2013-12-15 09:00:00,42.5,34.0,30.43,NW,318,0.0,0.0,72,0.00,,,0.00,Weather View 32 v70,2013-12-15 17:00:00,
2013-12-15 09:05:00,42.4,34.3,30.43,NW,318,0.0,0.0,73,0.00,,,0.00,Weather View 32 v70,2013-12-15 17:05:00,
2013-12-15 09:10:00,42.5,33.7,30.43,NW,318,0.0,0.0,71,0.00,,,0.00,Weather View 32 v70,2013-12-15 17:10:00,
2013-12-15 09:15:00,43.1,34.1,30.43,NW,318,0.0,0.0,71,0.00,,,0.00,Weather View 32 v70,2013-12-15 17:15:00,
2013-12-15 09:20:00,43.7,35.8,30.43,NW,318,0.0,0.0,74,0.00,,,0.00,Weather View 32 v70,2013-12-15 17:20:00,
2013-12-15 09:25:00,44.7,35.0,30.43,NW,318,0.0,0.0,69,0.00,,,0.00,Weather View 32 v70,2013-12-15 17:25:00,
2013-12-15 09:30:00,45.3,35.2,30.43,NW,318,0.0,0.0,68,0.00,,,0.00,Weather View 32 v70,2013-12-15 17:30:00,
2013-12-15 09:35:00,45.4,35.3,30.43,WSW,242,0.0,2.0,68,0.00,,,0.00,Weather View 32 v70,2013-12-15 17:35:00,
2013-12-15 09:40:00,46.6,37.3,30.43,WSW,242,0.0,2.0,70,0.00,,,0.00,Weather View 32 v70,2013-12-15 17:40:00,
2013-12-15 09:45:00,46.4,36.5,30.43,South,190,0.0,2.0,68,0.00,,,0.00,Weather View 32 v70,2013-12-15 17:45:00,
2013-12-15 09:50:00,48.0,37.9,30.43,SSW,208,0.0,3.0,68,0.00,,,0.00,Weather View 32 v70,2013-12-15 17:50:00,
2013-12-15 09:55:00,47.7,37.3,30.43,SW,222,0.0,3.0,67,0.00,,,0.00,Weather View 32 v70,2013-12-15 17:55:00,
2013-12-15 10:00:00,48.6,35.9,30.43,WSW,238,0.0,3.0,62,0.00,,,0.00,Weather View 32 v70,2013-12-15 18:00:00,
2013-12-15 10:05:00,49.1,36.2,30.43,WSW,238,0.0,3.0,61,0.00,,,0.00,Weather View 32 v70,2013-12-15 18:05:00,
2013-12-15 10:10:00,48.5,35.6,30.43,SE,136,0.0,4.0,61,0.00,,,0.00,Weather View 32 v70,2013-12-15 18:10:00,
2013-12-15 10:16:00,48.3,35.3,30.43,SSW,203,2.0,4.0,61,0.00,,,0.00,Weather View 32 v70,2013-12-15 18:16:00,
2013-12-15 10:21:00,50.0,36.1,30.43,South,191,0.0,4.0,59,0.00,,,0.00,Weather View 32 v70,2013-12-15 18:21:00,
2013-12-15 10:26:00,49.6,35.9,30.43,ESE,103,0.0,4.0,59,0.00,,,0.00,Weather View 32 v70,2013-12-15 18:26:00,
2013-12-15 10:31:00,49.8,35.1,30.43,South,173,3.0,4.0,57,0.00,,,0.00,Weather View 32 v70,2013-12-15 18:31:00,
2013-12-15 10:36:00,51.3,36.4,30.42,South,188,0.0,4.0,57,0.00,,,0.00,Weather View 32 v70,2013-12-15 18:36:00,
2013-12-15 10:41:00,50.3,35.8,30.42,SSE,153,1.0,4.0,57,0.00,,,0.00,Weather View 32 v70,2013-12-15 18:41:00,
2013-12-15 10:46:00,51.3,35.9,30.42,SW,217,0.0,4.0,56,0.00,,,0.00,Weather View 32 v70,2013-12-15 18:46:00,
2013-12-15 10:51:00,52.9,36.4,30.42,South,172,0.0,4.0,54,0.00,,,0.00,Weather View 32 v70,2013-12-15 18:51:00,
2013-12-15 10:56:00,53.5,37.1,30.42,WSW,255,2.0,4.0,54,0.00,,,0.00,Weather View 32 v70,2013-12-15 18:56:00,
2013-12-15 11:01:00,55.0,37.9,30.41,WSW,245,1.0,4.0,52,0.00,,,0.00,Weather View 32 v70,2013-12-15 19:01:00,
2013-12-15 11:06:00,54.6,37.1,30.41,WNW,302,0.0,4.0,52,0.00,,,0.00,Weather View 32 v70,2013-12-15 19:06:00,
2013-12-15 11:11:00,56.0,37.4,30.41,WSW,250,1.0,4.0,50,0.00,,,0.00,Weather View 32 v70,2013-12-15 19:11:00,
2013-12-15 11:16:00,56.6,38.0,30.40,SW,236,0.0,4.0,50,0.00,,,0.00,Weather View 32 v70,2013-12-15 19:16:00,
2013-12-15 11:21:00,56.6,39.8,30.40,WSW,239,0.0,4.0,53,0.00,,,0.00,Weather View 32 v70,2013-12-15 19:21:00,
2013-12-15 11:26:00,57.2,37.4,30.40,SW,219,3.0,4.0,48,0.00,,,0.00,Weather View 32 v70,2013-12-15 19:26:00,
2013-12-15 11:31:00,57.5,37.9,30.40,WSW,253,4.0,5.0,48,0.00,,,0.00,Weather View 32 v70,2013-12-15 19:31:00,
2013-12-15 11:36:00,57.9,38.5,30.39,SW,229,3.0,6.0,48,0.00,,,0.00,Weather View 32 v70,2013-12-15 19:36:00,
2013-12-15 11:41:00,58.3,39.3,30.39,WSW,255,5.0,6.0,49,0.00,,,0.00,Weather View 32 v70,2013-12-15 19:41:00,
2013-12-15 11:46:00,59.2,37.8,30.39,SSW,193,3.0,6.0,45,0.00,,,0.00,Weather View 32 v70,2013-12-15 19:46:00,
2013-12-15 11:47:00,58.8,38.0,30.39,SW,224,3.0,6.0,46,0.00,,,0.00,Weather View 32 v70,2013-12-15 19:47:00,
2013-12-15 11:52:00,59.2,38.3,30.38,SSW,201,1.0,6.0,46,0.00,,,0.00,Weather View 32 v70,2013-12-15 19:52:00,
2013-12-15 11:57:00,60.2,40.5,30.38,WSW,243,4.0,6.0,48,0.00,,,0.00,Weather View 32 v70,2013-12-15 19:57:00,
2013-12-15 12:02:00,60.3,37.9,30.38,WSW,240,2.0,6.0,43,0.00,,,0.00,Weather View 32 v70,2013-12-15 20:02:00,
2013-12-15 12:07:00,61.3,40.2,30.38,West,269,1.0,6.0,46,0.00,,,0.00,Weather View 32 v70,2013-12-15 20:07:00,
2013-12-15 12:12:00,61.9,37.8,30.38,WSW,256,1.0,6.0,41,0.00,,,0.00,Weather View 32 v70,2013-12-15 20:12:00,
2013-12-15 12:17:00,61.4,38.4,30.37,SSW,203,0.0,6.0,43,0.00,,,0.00,Weather View 32 v70,2013-12-15 20:17:00,
2013-12-15 12:22:00,61.7,38.2,30.37,WSW,238,0.0,6.0,42,0.00,,,0.00,Weather View 32 v70,2013-12-15 20:22:00,
2013-12-15 12:27:00,61.9,38.6,30.37,SSW,201,0.0,6.0,42,0.00,,,0.00,Weather View 32 v70,2013-12-15 20:27:00,
2013-12-15 12:32:00,62.3,38.3,30.36,WSW,249,0.0,6.0,41,0.00,,,0.00,Weather View 32 v70,2013-12-15 20:32:00,
2013-12-15 12:37:00,61.8,36.1,30.36,SW,232,1.0,6.0,38,0.00,,,0.00,Weather View 32 v70,2013-12-15 20:37:00,
2013-12-15 12:42:00,62.6,36.8,30.36,South,180,0.0,6.0,38,0.00,,,0.00,Weather View 32 v70,2013-12-15 20:42:00,
2013-12-15 12:47:00,64.2,37.3,30.36,SW,232,0.0,6.0,37,0.00,,,0.00,Weather View 32 v70,2013-12-15 20:47:00,
2013-12-15 12:52:00,63.9,36.1,30.36,ENE,68,2.0,6.0,36,0.00,,,0.00,Weather View 32 v70,2013-12-15 20:52:00,
2013-12-15 12:57:00,64.7,35.5,30.35,ENE,73,0.0,6.0,34,0.00,,,0.00,Weather View 32 v70,2013-12-15 20:57:00,
2013-12-15 13:02:00,64.7,32.2,30.35,SE,136,1.0,5.0,30,0.00,,,0.00,Weather View 32 v70,2013-12-15 21:02:00,
2013-12-15 13:07:00,64.4,33.3,30.35,East,86,6.0,6.0,31,0.00,,,0.00,Weather View 32 v70,2013-12-15 21:07:00,
2013-12-15 13:12:00,64.7,33.8,30.35,East,84,2.0,7.0,32,0.00,,,0.00,Weather View 32 v70,2013-12-15 21:12:00,
2013-12-15 13:17:00,64.2,32.2,30.35,North,353,0.0,7.0,30,0.00,,,0.00,Weather View 32 v70,2013-12-15 21:17:00,
2013-12-15 13:22:00,64.2,33.2,30.34,East,82,6.0,7.0,31,0.00,,,0.00,Weather View 32 v70,2013-12-15 21:22:00,
2013-12-15 13:27:00,65.6,32.8,30.34,ESE,110,4.0,7.0,30,0.00,,,0.00,Weather View 32 v70,2013-12-15 21:27:00,
2013-12-15 13:32:00,64.9,32.5,30.34,ENE,77,2.0,8.0,30,0.00,,,0.00,Weather View 32 v70,2013-12-15 21:32:00,
2013-12-15 13:37:00,64.7,32.1,30.34,ENE,77,5.0,8.0,30,0.00,,,0.00,Weather View 32 v70,2013-12-15 21:37:00,
2013-12-15 13:42:00,64.6,32.1,30.34,ENE,66,5.0,8.0,30,0.00,,,0.00,Weather View 32 v70,2013-12-15 21:42:00,
2013-12-15 13:47:00,65.4,32.9,30.34,East,97,3.0,8.0,30,0.00,,,0.00,Weather View 32 v70,2013-12-15 21:47:00,
2013-12-15 13:52:00,65.7,33.4,30.34,ESE,104,3.0,8.0,30,0.00,,,0.00,Weather View 32 v70,2013-12-15 21:52:00,
2013-12-15 13:57:00,64.8,32.6,30.34,East,86,4.0,8.0,30,0.00,,,0.00,Weather View 32 v70,2013-12-15 21:57:00,
2013-12-15 14:02:00,65.6,33.1,30.33,East,83,6.0,8.0,30,0.00,,,0.00,Weather View 32 v70,2013-12-15 22:02:00,
2013-12-15 14:07:00,65.8,33.6,30.33,East,101,4.0,8.0,30,0.00,,,0.00,Weather View 32 v70,2013-12-15 22:07:00,
2013-12-15 14:12:00,65.0,32.7,30.33,ENE,70,3.0,8.0,30,0.00,,,0.00,Weather View 32 v70,2013-12-15 22:12:00,
2013-12-15 14:17:00,65.1,34.1,30.33,NNW,332,0.0,8.0,32,0.00,,,0.00,Weather View 32 v70,2013-12-15 22:17:00,
2013-12-15 14:22:00,64.8,32.6,30.33,ENE,73,4.0,8.0,30,0.00,,,0.00,Weather View 32 v70,2013-12-15 22:22:00,
2013-12-15 14:27:00,64.6,33.0,30.32,East,82,5.0,8.0,31,0.00,,,0.00,Weather View 32 v70,2013-12-15 22:27:00,
2013-12-15 14:32:00,64.2,32.8,30.33,East,96,3.0,8.0,31,0.00,,,0.00,Weather View 32 v70,2013-12-15 22:32:00,
2013-12-15 14:37:00,63.9,33.0,30.33,ENE,68,3.0,8.0,32,0.00,,,0.00,Weather View 32 v70,2013-12-15 22:37:00,
2013-12-15 14:42:00,63.9,33.2,30.32,NE,48,3.0,8.0,32,0.00,,,0.00,Weather View 32 v70,2013-12-15 22:42:00,
2013-12-15 14:47:00,64.1,33.5,30.32,East,89,3.0,8.0,32,0.00,,,0.00,Weather View 32 v70,2013-12-15 22:47:00,
2013-12-15 14:52:00,63.8,32.9,30.32,ESE,105,4.0,8.0,32,0.00,,,0.00,Weather View 32 v70,2013-12-15 22:52:00,
2013-12-15 14:57:00,63.2,32.9,30.32,ENE,77,6.0,8.0,32,0.00,,,0.00,Weather View 32 v70,2013-12-15 22:57:00,
2013-12-15 15:02:00,63.6,34.0,30.32,ENE,66,0.0,8.0,33,0.00,,,0.00,Weather View 32 v70,2013-12-15 23:02:00,
2013-12-15 15:07:00,63.6,33.8,30.32,East,80,5.0,8.0,33,0.00,,,0.00,Weather View 32 v70,2013-12-15 23:07:00,
2013-12-15 15:12:00,63.0,33.1,30.32,NNE,15,1.0,8.0,33,0.00,,,0.00,Weather View 32 v70,2013-12-15 23:12:00,
2013-12-15 15:17:00,62.7,33.2,30.32,NE,42,2.0,8.0,33,0.00,,,0.00,Weather View 32 v70,2013-12-15 23:17:00,
2013-12-15 15:22:00,62.7,33.8,30.32,ENE,63,1.0,8.0,34,0.00,,,0.00,Weather View 32 v70,2013-12-15 23:22:00,
2013-12-15 15:27:00,63.3,34.1,30.31,East,86,2.0,8.0,34,0.00,,,0.00,Weather View 32 v70,2013-12-15 23:27:00,
2013-12-15 15:32:00,62.8,34.2,30.31,East,91,3.0,8.0,34,0.00,,,0.00,Weather View 32 v70,2013-12-15 23:32:00,
2013-12-15 15:37:00,62.0,33.2,30.31,ENE,65,1.0,8.0,34,0.00,,,0.00,Weather View 32 v70,2013-12-15 23:37:00,
2013-12-15 15:42:00,62.0,34.3,30.31,North,0,0.0,8.0,36,0.00,,,0.00,Weather View 32 v70,2013-12-15 23:42:00,
2013-12-15 15:48:00,61.8,34.0,30.31,ENE,70,2.0,8.0,35,0.00,,,0.00,Weather View 32 v70,2013-12-15 23:48:00,
2013-12-15 15:53:00,61.8,34.0,30.31,NNE,24,1.0,7.0,35,0.00,,,0.00,Weather View 32 v70,2013-12-15 23:53:00,
2013-12-15 15:58:00,61.4,33.9,30.31,ENE,60,0.0,7.0,36,0.00,,,0.00,Weather View 32 v70,2013-12-15 23:58:00,
2013-12-15 16:03:00,61.5,34.4,30.31,East,91,3.0,7.0,36,0.00,,,0.00,Weather View 32 v70,2013-12-16 00:03:00,
2013-12-15 16:08:00,61.2,34.5,30.31,NE,35,0.0,7.0,37,0.00,,,0.00,Weather View 32 v70,2013-12-16 00:08:00,
2013-12-15 16:13:00,61.0,34.5,30.31,ENE,70,3.0,7.0,37,0.00,,,0.00,Weather View 32 v70,2013-12-16 00:13:00,
2013-12-15 16:18:00,60.9,35.1,30.31,East,83,2.0,7.0,38,0.00,,,0.00,Weather View 32 v70,2013-12-16 00:18:00,
2013-12-15 16:23:00,60.1,34.9,30.31,ENE,68,2.0,7.0,39,0.00,,,0.00,Weather View 32 v70,2013-12-16 00:23:00,
2013-12-15 16:28:00,60.0,35.1,30.31,East,82,2.0,7.0,39,0.00,,,0.00,Weather View 32 v70,2013-12-16 00:28:00,
2013-12-15 16:33:00,59.7,34.9,30.31,East,84,0.0,6.0,39,0.00,,,0.00,Weather View 32 v70,2013-12-16 00:33:00,
2013-12-15 16:38:00,59.5,36.2,30.30,ENE,63,0.0,6.0,42,0.00,,,0.00,Weather View 32 v70,2013-12-16 00:38:00,
2013-12-15 16:43:00,59.4,37.5,30.30,ENE,63,0.0,6.0,44,0.00,,,0.00,Weather View 32 v70,2013-12-16 00:43:00,
2013-12-15 16:48:00,58.8,37.0,30.30,ENE,63,0.0,6.0,44,0.00,,,0.00,Weather View 32 v70,2013-12-16 00:48:00,
2013-12-15 16:53:00,57.7,37.2,30.30,ENE,63,0.0,6.0,46,0.00,,,0.00,Weather View 32 v70,2013-12-16 00:53:00,
2013-12-15 16:58:00,57.3,37.9,30.30,ENE,63,0.0,6.0,48,0.00,,,0.00,Weather View 32 v70,2013-12-16 00:58:00,
2013-12-15 17:03:00,57.2,37.8,30.31,ENE,63,0.0,6.0,48,0.00,,,0.00,Weather View 32 v70,2013-12-16 01:03:00,
2013-12-15 17:08:00,57.2,36.9,30.31,ENE,63,0.0,5.0,47,0.00,,,0.00,Weather View 32 v70,2013-12-16 01:08:00,
2013-12-15 17:13:00,56.1,38.6,30.31,ENE,63,0.0,5.0,52,0.00,,,0.00,Weather View 32 v70,2013-12-16 01:13:00,
2013-12-15 17:18:00,54.4,37.4,30.31,ENE,63,0.0,5.0,53,0.00,,,0.00,Weather View 32 v70,2013-12-16 01:18:00,
2013-12-15 17:23:00,53.6,39.8,30.31,ENE,63,0.0,4.0,60,0.00,,,0.00,Weather View 32 v70,2013-12-16 01:23:00,
2013-12-15 17:28:00,53.4,38.1,30.31,ENE,63,0.0,4.0,56,0.00,,,0.00,Weather View 32 v70,2013-12-16 01:28:00,
2013-12-15 17:33:00,53.0,37.3,30.31,ENE,63,0.0,2.0,55,0.00,,,0.00,Weather View 32 v70,2013-12-16 01:33:00,
2013-12-15 17:38:00,52.7,37.4,30.31,ENE,63,0.0,0.0,56,0.00,,,0.00,Weather View 32 v70,2013-12-16 01:38:00,
2013-12-15 17:43:00,52.4,37.4,30.31,ENE,63,0.0,0.0,57,0.00,,,0.00,Weather View 32 v70,2013-12-16 01:43:00,
2013-12-15 17:48:00,52.2,37.6,30.31,ENE,63,0.0,0.0,58,0.00,,,0.00,Weather View 32 v70,2013-12-16 01:48:00,
2013-12-15 17:53:00,51.8,38.6,30.31,ENE,63,0.0,0.0,61,0.00,,,0.00,Weather View 32 v70,2013-12-16 01:53:00,
2013-12-15 17:58:00,51.2,37.9,30.31,ENE,63,0.0,0.0,60,0.00,,,0.00,Weather View 32 v70,2013-12-16 01:58:00,
2013-12-15 18:03:00,50.6,37.6,30.31,ENE,63,0.0,0.0,61,0.00,,,0.00,Weather View 32 v70,2013-12-16 02:03:00,
2013-12-15 18:08:00,50.2,37.2,30.31,ENE,63,0.0,0.0,61,0.00,,,0.00,Weather View 32 v70,2013-12-16 02:08:00,
2013-12-15 18:13:00,50.1,37.5,30.31,ENE,63,0.0,0.0,62,0.00,,,0.00,Weather View 32 v70,2013-12-16 02:13:00,
2013-12-15 18:19:00,49.5,37.2,30.31,ENE,63,0.0,0.0,63,0.00,,,0.00,Weather View 32 v70,2013-12-16 02:19:00,
2013-12-15 18:24:00,49.3,37.2,30.31,ENE,63,0.0,0.0,63,0.00,,,0.00,Weather View 32 v70,2013-12-16 02:24:00,
2013-12-15 18:29:00,48.8,37.0,30.31,ENE,63,0.0,0.0,64,0.00,,,0.00,Weather View 32 v70,2013-12-16 02:29:00,
2013-12-15 18:34:00,48.5,37.1,30.31,ENE,63,0.0,0.0,65,0.00,,,0.00,Weather View 32 v70,2013-12-16 02:34:00,
2013-12-15 18:39:00,48.3,37.1,30.31,ENE,63,0.0,0.0,65,0.00,,,0.00,Weather View 32 v70,2013-12-16 02:39:00,
2013-12-15 18:44:00,48.3,37.4,30.31,ENE,63,0.0,0.0,66,0.00,,,0.00,Weather View 32 v70,2013-12-16 02:44:00,
2013-12-15 18:49:00,48.2,37.3,30.31,ENE,63,0.0,0.0,66,0.00,,,0.00,Weather View 32 v70,2013-12-16 02:49:00,
2013-12-15 18:54:00,47.4,37.1,30.31,ENE,63,0.0,0.0,67,0.00,,,0.00,Weather View 32 v70,2013-12-16 02:54:00,
2013-12-15 18:59:00,47.4,36.6,30.31,ENE,63,0.0,0.0,66,0.00,,,0.00,Weather View 32 v70,2013-12-16 02:59:00,
2013-12-15 19:04:00,47.7,36.8,30.31,ENE,63,0.0,0.0,66,0.00,,,0.00,Weather View 32 v70,2013-12-16 03:04:00,
2013-12-15 19:09:00,47.5,37.8,30.31,ENE,63,0.0,0.0,69,0.00,,,0.00,Weather View 32 v70,2013-12-16 03:09:00,
2013-12-15 19:14:00,47.3,36.6,30.31,ENE,63,0.0,0.0,66,0.00,,,0.00,Weather View 32 v70,2013-12-16 03:14:00,
2013-12-15 19:19:00,47.2,36.7,30.32,ENE,63,0.0,0.0,67,0.00,,,0.00,Weather View 32 v70,2013-12-16 03:19:00,
2013-12-15 19:24:00,47.1,37.1,30.32,ENE,63,0.0,0.0,68,0.00,,,0.00,Weather View 32 v70,2013-12-16 03:24:00,
2013-12-15 19:29:00,46.9,37.0,30.31,ENE,63,0.0,0.0,68,0.00,,,0.00,Weather View 32 v70,2013-12-16 03:29:00,
2013-12-15 19:34:00,46.3,36.7,30.32,ENE,63,0.0,0.0,69,0.00,,,0.00,Weather View 32 v70,2013-12-16 03:34:00,
2013-12-15 19:39:00,46.1,36.6,30.32,ENE,63,0.0,0.0,69,0.00,,,0.00,Weather View 32 v70,2013-12-16 03:39:00,
2013-12-15 19:44:00,46.0,36.8,30.32,ENE,63,0.0,0.0,70,0.00,,,0.00,Weather View 32 v70,2013-12-16 03:44:00,
2013-12-15 19:49:00,45.8,36.9,30.32,ENE,63,0.0,0.0,71,0.00,,,0.00,Weather View 32 v70,2013-12-16 03:49:00,
2013-12-15 19:54:00,46.2,36.8,30.32,ENE,63,0.0,0.0,70,0.00,,,0.00,Weather View 32 v70,2013-12-16 03:54:00,
2013-12-15 19:59:00,46.2,37.0,30.32,ENE,63,0.0,0.0,70,0.00,,,0.00,Weather View 32 v70,2013-12-16 03:59:00,
2013-12-15 20:04:00,45.6,37.2,30.32,ENE,63,0.0,0.0,72,0.00,,,0.00,Weather View 32 v70,2013-12-16 04:04:00,
2013-12-15 20:09:00,45.0,36.4,30.32,ENE,63,0.0,0.0,72,0.00,,,0.00,Weather View 32 v70,2013-12-16 04:09:00,
2013-12-15 20:14:00,44.9,36.3,30.32,ENE,63,0.0,0.0,72,0.00,,,0.00,Weather View 32 v70,2013-12-16 04:14:00,
2013-12-15 20:19:00,45.5,36.6,30.31,ENE,63,0.0,0.0,71,0.00,,,0.00,Weather View 32 v70,2013-12-16 04:19:00,
2013-12-15 20:24:00,45.0,36.6,30.31,ENE,63,0.0,0.0,72,0.00,,,0.00,Weather View 32 v70,2013-12-16 04:24:00,
2013-12-15 20:29:00,44.4,35.8,30.32,ENE,63,0.0,0.0,72,0.00,,,0.00,Weather View 32 v70,2013-12-16 04:29:00,
2013-12-15 20:34:00,44.7,36.2,30.32,ENE,63,0.0,0.0,72,0.00,,,0.00,Weather View 32 v70,2013-12-16 04:34:00,
2013-12-15 20:39:00,44.4,36.2,30.32,ENE,63,0.0,0.0,73,0.00,,,0.00,Weather View 32 v70,2013-12-16 04:39:00,
2013-12-15 20:44:00,44.3,36.4,30.32,ENE,63,0.0,0.0,74,0.00,,,0.00,Weather View 32 v70,2013-12-16 04:44:00,
2013-12-15 20:49:00,44.5,36.1,30.32,ENE,63,0.0,0.0,72,0.00,,,0.00,Weather View 32 v70,2013-12-16 04:49:00,
2013-12-15 20:54:00,43.7,35.8,30.32,ENE,63,0.0,0.0,74,0.00,,,0.00,Weather View 32 v70,2013-12-16 04:54:00,
2013-12-15 20:59:00,43.5,35.6,30.32,ENE,63,0.0,0.0,74,0.00,,,0.00,Weather View 32 v70,2013-12-16 04:59:00,
2013-12-15 21:01:00,43.8,36.9,30.32,ENE,63,0.0,0.0,77,0.00,,,0.00,Weather View 32 v70,2013-12-16 05:01:00,
2013-12-15 21:03:00,44.2,36.0,30.32,ENE,63,0.0,0.0,73,0.00,,,0.00,Weather View 32 v70,2013-12-16 05:03:00,
2013-12-15 21:08:00,43.7,36.2,30.32,ENE,63,0.0,0.0,75,0.00,,,0.00,Weather View 32 v70,2013-12-16 05:08:00,
2013-12-15 21:13:00,44.0,35.9,30.32,ENE,63,0.0,0.0,73,0.00,,,0.00,Weather View 32 v70,2013-12-16 05:13:00,
2013-12-15 21:18:00,43.6,36.0,30.31,ENE,63,0.0,0.0,75,0.00,,,0.00,Weather View 32 v70,2013-12-16 05:18:00,
2013-12-15 21:23:00,43.6,36.0,30.31,ENE,63,0.0,0.0,74,0.00,,,0.00,Weather View 32 v70,2013-12-16 05:23:00,
2013-12-15 21:28:00,43.5,36.2,30.31,ENE,63,0.0,0.0,75,0.00,,,0.00,Weather View 32 v70,2013-12-16 05:28:00,
2013-12-15 21:33:00,43.9,36.5,30.31,ENE,63,0.0,0.0,75,0.00,,,0.00,Weather View 32 v70,2013-12-16 05:33:00,
2013-12-15 21:38:00,43.3,35.9,30.31,ENE,63,0.0,0.0,75,0.00,,,0.00,Weather View 32 v70,2013-12-16 05:38:00,
2013-12-15 21:43:00,43.2,35.7,30.31,ENE,63,0.0,0.0,75,0.00,,,0.00,Weather View 32 v70,2013-12-16 05:43:00,
2013-12-15 21:48:00,43.2,36.0,30.32,ENE,63,0.0,0.0,76,0.00,,,0.00,Weather View 32 v70,2013-12-16 05:48:00,
2013-12-15 21:53:00,43.3,36.1,30.32,ENE,63,0.0,0.0,76,0.00,,,0.00,Weather View 32 v70,2013-12-16 05:53:00,
2013-12-15 21:58:00,43.3,36.2,30.32,ENE,63,0.0,0.0,76,0.00,,,0.00,Weather View 32 v70,2013-12-16 05:58:00,
2013-12-15 22:03:00,43.3,36.5,30.32,ENE,63,0.0,0.0,77,0.00,,,0.00,Weather View 32 v70,2013-12-16 06:03:00,
2013-12-15 22:08:00,42.5,35.9,30.32,ENE,63,0.0,0.0,77,0.00,,,0.00,Weather View 32 v70,2013-12-16 06:08:00,
2013-12-15 22:13:00,42.2,35.7,30.32,ENE,63,0.0,0.0,78,0.00,,,0.00,Weather View 32 v70,2013-12-16 06:13:00,
2013-12-15 22:18:00,42.7,36.2,30.32,ENE,63,0.0,0.0,78,0.00,,,0.00,Weather View 32 v70,2013-12-16 06:18:00,
2013-12-15 22:23:00,42.3,35.8,30.32,ENE,63,0.0,0.0,78,0.00,,,0.00,Weather View 32 v70,2013-12-16 06:23:00,
2013-12-15 22:28:00,42.2,35.5,30.32,ENE,63,0.0,0.0,77,0.00,,,0.00,Weather View 32 v70,2013-12-16 06:28:00,
2013-12-15 22:33:00,42.2,35.7,30.32,ENE,63,0.0,0.0,78,0.00,,,0.00,Weather View 32 v70,2013-12-16 06:33:00,
2013-12-15 22:38:00,42.3,35.7,30.32,ENE,63,0.0,0.0,77,0.00,,,0.00,Weather View 32 v70,2013-12-16 06:38:00,
2013-12-15 22:43:00,42.1,35.9,30.32,ENE,63,0.0,0.0,79,0.00,,,0.00,Weather View 32 v70,2013-12-16 06:43:00,
2013-12-15 22:48:00,41.9,35.5,30.32,ENE,63,0.0,0.0,78,0.00,,,0.00,Weather View 32 v70,2013-12-16 06:48:00,
2013-12-15 22:53:00,41.9,35.6,30.32,ENE,63,0.0,0.0,78,0.00,,,0.00,Weather View 32 v70,2013-12-16 06:53:00,
2013-12-15 22:58:00,42.0,35.5,30.32,ENE,63,0.0,0.0,78,0.00,,,0.00,Weather View 32 v70,2013-12-16 06:58:00,
2013-12-15 23:03:00,41.8,35.0,30.32,ENE,63,0.0,0.0,77,0.00,,,0.00,Weather View 32 v70,2013-12-16 07:03:00,
2013-12-15 23:08:00,42.1,35.6,30.32,ENE,63,0.0,0.0,78,0.00,,,0.00,Weather View 32 v70,2013-12-16 07:08:00,
2013-12-15 23:13:00,41.9,35.4,30.32,ENE,63,0.0,0.0,78,0.00,,,0.00,Weather View 32 v70,2013-12-16 07:13:00,
2013-12-15 23:18:00,41.5,35.6,30.32,ENE,63,0.0,0.0,79,0.00,,,0.00,Weather View 32 v70,2013-12-16 07:18:00,
2013-12-15 23:23:00,41.6,35.0,30.32,ENE,63,0.0,0.0,77,0.00,,,0.00,Weather View 32 v70,2013-12-16 07:23:00,
2013-12-15 23:28:00,41.2,34.7,30.33,ENE,63,0.0,0.0,78,0.00,,,0.00,Weather View 32 v70,2013-12-16 07:28:00,
2013-12-15 23:33:00,41.4,35.2,30.32,ENE,63,0.0,0.0,79,0.00,,,0.00,Weather View 32 v70,2013-12-16 07:33:00,
2013-12-15 23:38:00,41.3,35.2,30.32,ENE,63,0.0,0.0,79,0.00,,,0.00,Weather View 32 v70,2013-12-16 07:38:00,
2013-12-15 23:43:00,40.5,34.5,30.32,ENE,63,0.0,0.0,79,0.00,,,0.00,Weather View 32 v70,2013-12-16 07:43:00,
2013-12-15 23:48:00,41.0,35.5,30.32,ENE,63,0.0,0.0,81,0.00,,,0.00,Weather View 32 v70,2013-12-16 07:48:00,
2013-12-15 23:53:00,40.4,34.5,30.32,ENE,63,0.0,0.0,79,0.00,,,0.00,Weather View 32 v70,2013-12-16 07:53:00,
2013-12-15 23:58:00,40.5,34.8,30.32,ENE,63,0.0,0.0,80,0.00,,,0.00,Weather View 32 v70,2013-12-16 07:58:00,